Time;durP1;ratioP1;P1;durP2;ratioP2;P2;SDS_P1;SDS_P2;PMS_P1;PMS_P2;Temp;Humidity;BMP_temperature;BMP_pressure;BME280_temperature;BME280_humidity;BME280_pressure;Samples;Min_cycle;Max_cycle;Signal;HPM_P1;HPM_P2
2021/11/30 00:01:03;;;;;;;25.55;12.77;;;;;;;;;;5094222;28;20052;-66
2021/11/30 00:03:39;;;;;;;24.27;12.98;;;;;;;;;;5094112;28;20020;-67
2021/11/30 00:06:07;;;;;;;24.83;13.07;;;;;;;;;;5094080;28;20040;-69
2021/11/30 00:08:34;;;;;;;21.50;12.48;;;;;;;;;;5075834;28;20441;-68
2021/11/30 00:11:01;;;;;;;25.05;13.63;;;;;;;;;;5094062;28;20024;-66
2021/11/30 00:13:29;;;;;;;22.65;13.07;;;;;;;;;;5093961;28;20107;-66
2021/11/30 00:15:57;;;;;;;23.45;13.68;;;;;;;;;;5075565;28;20476;-67
2021/11/30 00:18:24;;;;;;;20.55;12.90;;;;;;;;;;5093356;28;20020;-68
2021/11/30 00:20:51;;;;;;;20.08;12.82;;;;;;;;;;5075652;28;20067;-66
2021/11/30 00:23:18;;;;;;;21.80;12.90;;;;;;;;;;5075546;28;20048;-66
2021/11/30 00:25:45;;;;;;;22.48;13.73;;;;;;;;;;5093723;28;20670;-67
2021/11/30 00:28:11;;;;;;;25.27;13.27;;;;;;;;;;5075497;28;20024;-66
2021/11/30 00:30:39;;;;;;;26.35;14.85;;;;;;;;;;5093719;28;20020;-67
2021/11/30 00:33:06;;;;;;;26.75;13.80;;;;;;;;;;5075337;28;20035;-68
2021/11/30 00:35:32;;;;;;;23.38;13.82;;;;;;;;;;5093589;28;20372;-67
2021/11/30 00:37:59;;;;;;;22.30;13.20;;;;;;;;;;5075385;28;20059;-68
2021/11/30 00:40:25;;;;;;;22.15;13.18;;;;;;;;;;5092792;28;20027;-68
2021/11/30 00:42:52;;;;;;;25.42;14.07;;;;;;;;;;5093473;28;20034;-68
2021/11/30 00:45:20;;;;;;;24.70;14.20;;;;;;;;;;5093056;28;20542;-67
2021/11/30 00:47:58;;;;;;;28.60;14.70;;;;;;;;;;5093470;28;20028;-66
2021/11/30 00:50:25;;;;;;;23.58;14.85;;;;;;;;;;5093128;28;20468;-67
2021/11/30 00:52:52;;;;;;;28.55;15.77;;;;;;;;;;5093315;28;20054;-67
2021/11/30 00:55:19;;;;;;;29.35;15.30;;;;;;;;;;5093276;28;20057;-64
2021/11/30 00:57:45;;;;;;;25.58;14.23;;;;;;;;;;5093013;28;20022;-64
2021/11/30 01:00:14;;;;;;;25.92;13.93;;;;;;;;;;5092908;28;20403;-64
2021/11/30 01:02:40;;;;;;;26.27;15.50;;;;;;;;;;5093166;28;20036;-64
2021/11/30 01:05:07;;;;;;;23.70;13.63;;;;;;;;;;5092754;28;20044;-65
2021/11/30 01:07:35;;;;;;;25.27;14.50;;;;;;;;;;5093094;28;20107;-65
2021/11/30 01:10:04;;;;;;;23.38;13.60;;;;;;;;;;5093139;28;20020;-64
2021/11/30 01:12:33;;;;;;;26.13;13.50;;;;;;;;;;5093171;28;20024;-65
2021/11/30 01:15:00;;;;;;;21.77;12.45;;;;;;;;;;5092824;28;20103;-65
2021/11/30 01:17:27;;;;;;;22.67;13.02;;;;;;;;;;5075021;28;20063;-65
2021/11/30 01:19:53;;;;;;;21.65;12.77;;;;;;;;;;5074938;28;20032;-65
2021/11/30 01:22:20;;;;;;;24.92;12.63;;;;;;;;;;5093117;28;20024;-65
2021/11/30 01:24:46;;;;;;;23.48;14.60;;;;;;;;;;5092743;28;20491;-65
2021/11/30 01:27:12;;;;;;;23.45;13.93;;;;;;;;;;5092658;28;20059;-65
2021/11/30 01:29:39;;;;;;;23.98;13.85;;;;;;;;;;5096656;28;20107;-65
2021/11/30 01:32:05;;;;;;;24.30;14.25;;;;;;;;;;5078889;28;20119;-65
2021/11/30 01:34:31;;;;;;;23.02;13.65;;;;;;;;;;5078849;28;20077;-66
2021/11/30 01:36:58;;;;;;;23.45;14.50;;;;;;;;;;5096997;28;20114;-65
2021/11/30 01:39:25;;;;;;;36.15;17.17;;;;;;;;;;5096938;28;20063;-64
2021/11/30 01:41:52;;;;;;;30.40;16.48;;;;;;;;;;5078668;28;20377;-66
2021/11/30 01:44:39;;;;;;;35.40;17.98;;;;;;;;;;5096819;28;20384;-65
2021/11/30 01:47:22;;;;;;;34.40;18.33;;;;;;;;;;5096779;28;20043;-68
2021/11/30 01:49:49;;;;;;;30.83;16.10;;;;;;;;;;5096755;28;20059;-66
2021/11/30 01:52:15;;;;;;;31.58;17.10;;;;;;;;;;5078503;28;20024;-65
2021/11/30 01:54:44;;;;;;;30.67;16.35;;;;;;;;;;5096659;28;20090;-66
2021/11/30 01:57:12;;;;;;;26.27;15.52;;;;;;;;;;5096611;28;20034;-66
2021/11/30 01:59:39;;;;;;;25.92;13.82;;;;;;;;;;5096534;28;20473;-66
2021/11/30 02:02:06;;;;;;;24.70;14.45;;;;;;;;;;5096305;28;20052;-66
2021/11/30 02:04:32;;;;;;;24.13;13.45;;;;;;;;;;5074524;28;20128;-65
2021/11/30 02:06:58;;;;;;;25.63;13.63;;;;;;;;;;5076084;28;20071;-66
2021/11/30 02:09:27;;;;;;;29.30;14.20;;;;;;;;;;5076298;28;20146;-67
2021/11/30 02:11:54;;;;;;;22.88;14.90;;;;;;;;;;5076086;28;20077;-66
2021/11/30 02:14:20;;;;;;;23.75;13.00;;;;;;;;;;5074694;28;20025;-66
2021/11/30 02:16:48;;;;;;;22.40;13.07;;;;;;;;;;5076296;28;20476;-65
2021/11/30 02:19:14;;;;;;;22.30;13.48;;;;;;;;;;5074640;28;20093;-64
2021/11/30 02:21:41;;;;;;;23.33;13.23;;;;;;;;;;5075955;28;20491;-64
2021/11/30 02:24:08;;;;;;;22.48;14.35;;;;;;;;;;5074511;28;20035;-64
2021/11/30 02:26:36;;;;;;;22.80;13.55;;;;;;;;;;5075696;28;20469;-65
2021/11/30 02:29:07;;;;;;;26.73;13.57;;;;;;;;;;5075747;28;20060;-65
2021/11/30 02:31:37;;;;;;;24.38;13.68;;;;;;;;;;5075784;28;20031;-64
2021/11/30 02:34:05;;;;;;;24.20;14.10;;;;;;;;;;5075712;28;20103;-65
2021/11/30 02:36:49;;;;;;;24.92;14.82;;;;;;;;;;5074288;28;20037;-64
2021/11/30 02:39:18;;;;;;;26.33;15.35;;;;;;;;;;5074726;28;20016;-66
2021/11/30 02:41:45;;;;;;;26.02;14.15;;;;;;;;;;5075286;28;20025;-65
2021/11/30 02:44:12;;;;;;;27.55;14.43;;;;;;;;;;5075456;28;20465;-65
2021/11/30 02:46:44;;;;;;;27.77;14.98;;;;;;;;;;5075464;28;20045;-66
2021/11/30 02:49:12;;;;;;;26.33;15.23;;;;;;;;;;5075451;28;20469;-66
2021/11/30 02:51:41;;;;;;;24.30;14.55;;;;;;;;;;5075375;28;20029;-65
2021/11/30 02:54:09;;;;;;;26.42;14.90;;;;;;;;;;5073984;28;20048;-64
2021/11/30 02:56:42;;;;;;;21.80;13.73;;;;;;;;;;5075233;28;20025;-66
2021/11/30 02:59:09;;;;;;;27.80;14.38;;;;;;;;;;5074965;28;20223;-64
2021/11/30 03:01:36;;;;;;;26.55;13.93;;;;;;;;;;5075076;28;20056;-65
2021/11/30 03:04:09;;;;;;;26.58;14.38;;;;;;;;;;5078567;28;20058;-65
2021/11/30 03:06:35;;;;;;;22.80;13.95;;;;;;;;;;5095232;28;20043;-66
2021/11/30 03:09:02;;;;;;;23.15;13.77;;;;;;;;;;5077044;28;20059;-65
2021/11/30 03:11:28;;;;;;;22.83;13.85;;;;;;;;;;5095278;28;20062;-65
2021/11/30 03:13:54;;;;;;;21.67;13.57;;;;;;;;;;5094876;28;20039;-65
2021/11/30 03:16:21;;;;;;;24.65;14.65;;;;;;;;;;5076941;28;20111;-65
2021/11/30 03:18:47;;;;;;;27.25;15.13;;;;;;;;;;5095105;28;20024;-66
2021/11/30 03:21:13;;;;;;;24.65;14.40;;;;;;;;;;5094996;28;20073;-65
2021/11/30 03:23:41;;;;;;;23.55;14.18;;;;;;;;;;5094954;28;20032;-64
2021/11/30 03:26:08;;;;;;;29.13;16.83;;;;;;;;;;5094786;28;20081;-65
2021/11/30 03:28:34;;;;;;;33.72;15.05;;;;;;;;;;5076661;28;20028;-65
2021/11/30 03:31:03;;;;;;;22.63;13.93;;;;;;;;;;5094810;28;20052;-66
2021/11/30 03:36:14;;;;;;;25.63;15.27;;;;;;;;;;5094519;28;20046;-66
2021/11/30 03:38:41;;;;;;;25.27;14.32;;;;;;;;;;5076472;28;20028;-67
2021/11/30 03:41:07;;;;;;;21.25;12.73;;;;;;;;;;5094621;28;20024;-65
2021/11/30 03:43:34;;;;;;;23.90;14.27;;;;;;;;;;5076377;28;20024;-65
2021/11/30 03:46:00;;;;;;;23.15;14.50;;;;;;;;;;5094709;28;20086;-65
2021/11/30 03:48:26;;;;;;;21.80;13.38;;;;;;;;;;5076168;28;20097;-65
2021/11/30 03:50:53;;;;;;;28.45;13.50;;;;;;;;;;5094107;28;20099;-65
2021/11/30 03:53:19;;;;;;;24.98;13.27;;;;;;;;;;5094442;28;20034;-65
2021/11/30 03:55:45;;;;;;;23.55;12.57;;;;;;;;;;5094087;28;20496;-65
2021/11/30 03:58:12;;;;;;;22.65;13.48;;;;;;;;;;5075751;28;20024;-65
2021/11/30 04:00:38;;;;;;;25.70;15.63;;;;;;;;;;5076031;28;20107;-64
2021/11/30 04:03:05;;;;;;;23.70;14.18;;;;;;;;;;5093993;28;20520;-64
2021/11/30 04:05:31;;;;;;;30.80;14.50;;;;;;;;;;5094012;28;20051;-65
2021/11/30 04:07:57;;;;;;;23.40;14.38;;;;;;;;;;5094122;28;20028;-68
2021/11/30 04:10:24;;;;;;;23.10;13.35;;;;;;;;;;5094066;28;20039;-65
2021/11/30 04:12:51;;;;;;;25.33;14.25;;;;;;;;;;5075833;28;20177;-65
2021/11/30 04:15:17;;;;;;;23.90;14.02;;;;;;;;;;5075722;28;20036;-66
2021/11/30 04:17:43;;;;;;;25.25;13.35;;;;;;;;;;5093920;28;20488;-64
2021/11/30 04:20:10;;;;;;;27.80;15.45;;;;;;;;;;5093769;28;20034;-65
2021/11/30 04:22:37;;;;;;;22.42;14.02;;;;;;;;;;5075907;28;20419;-65
2021/11/30 04:25:04;;;;;;;22.95;13.75;;;;;;;;;;5093799;28;20028;-65
2021/11/30 04:27:31;;;;;;;23.98;13.25;;;;;;;;;;5093648;28;20035;-66
2021/11/30 04:29:57;;;;;;;22.40;12.80;;;;;;;;;;5093754;28;20058;-65
2021/11/30 04:32:24;;;;;;;23.63;13.82;;;;;;;;;;5075583;28;20056;-66
2021/11/30 04:34:50;;;;;;;20.95;12.85;;;;;;;;;;5075378;28;20028;-66
2021/11/30 04:37:16;;;;;;;24.98;13.50;;;;;;;;;;5093622;28;20107;-67
2021/11/30 04:39:43;;;;;;;23.65;12.95;;;;;;;;;;5093847;28;20123;-65
2021/11/30 04:42:09;;;;;;;23.13;13.55;;;;;;;;;;5093275;28;20127;-65
2021/11/30 04:44:38;;;;;;;24.33;14.52;;;;;;;;;;5093450;28;20093;-67
2021/11/30 04:47:09;;;;;;;30.05;15.25;;;;;;;;;;5093366;28;20024;-67
2021/11/30 04:49:55;;;;;;;28.25;15.25;;;;;;;;;;5093486;28;20073;-66
2021/11/30 04:52:21;;;;;;;26.85;14.55;;;;;;;;;;5093388;28;20020;-66
2021/11/30 04:54:47;;;;;;;32.95;16.75;;;;;;;;;;5093367;28;20030;-67
2021/11/30 04:57:13;;;;;;;32.55;17.50;;;;;;;;;;5093322;28;20028;-65
2021/11/30 04:59:40;;;;;;;29.02;15.38;;;;;;;;;;5075159;28;20050;-67
2021/11/30 05:02:06;;;;;;;23.90;13.52;;;;;;;;;;5075124;28;20028;-66
2021/11/30 05:04:32;;;;;;;28.67;13.88;;;;;;;;;;5092495;28;20055;-67
2021/11/30 05:06:59;;;;;;;25.75;14.30;;;;;;;;;;5093186;28;20059;-66
2021/11/30 05:09:25;;;;;;;25.98;13.68;;;;;;;;;;5093103;28;20111;-66
2021/11/30 05:11:51;;;;;;;21.50;12.52;;;;;;;;;;5093094;28;20103;-66
2021/11/30 05:14:18;;;;;;;22.27;13.23;;;;;;;;;;5093157;28;20461;-66
2021/11/30 05:16:44;;;;;;;23.35;13.48;;;;;;;;;;5093108;28;20106;-65
2021/11/30 05:19:10;;;;;;;24.45;14.13;;;;;;;;;;5093153;28;20038;-66
2021/11/30 05:21:36;;;;;;;20.83;12.25;;;;;;;;;;5093074;28;20036;-67
2021/11/30 05:24:05;;;;;;;27.85;14.73;;;;;;;;;;5074920;28;20414;-69
2021/11/30 05:26:31;;;;;;;22.88;13.80;;;;;;;;;;5092996;28;20032;-68
2021/11/30 05:28:58;;;;;;;20.90;12.60;;;;;;;;;;5092993;28;20024;-68
2021/11/30 05:31:24;;;;;;;24.35;13.93;;;;;;;;;;5092981;28;20024;-68
2021/11/30 05:33:50;;;;;;;25.23;12.85;;;;;;;;;;5093263;28;20111;-67
2021/11/30 05:36:21;;;;;;;26.92;13.70;;;;;;;;;;5074811;28;20028;-67
2021/11/30 05:38:47;;;;;;;21.77;14.18;;;;;;;;;;5092885;28;20050;-66
2021/11/30 05:41:13;;;;;;;30.80;16.90;;;;;;;;;;5092570;28;20055;-66
2021/11/30 05:56:46;;;;;;;29.13;17.13;;;;;;;;;;5151726;27;20321;-67
2021/11/30 05:59:14;;;;;;;30.38;17.38;;;;;;;;;;5131353;28;20035;-66
2021/11/30 06:01:41;;;;;;;27.85;15.73;;;;;;;;;;5129813;28;20030;-66
2021/11/30 06:04:07;;;;;;;26.65;14.52;;;;;;;;;;5131137;27;20035;-66
2021/11/30 06:06:35;;;;;;;28.13;15.23;;;;;;;;;;5131153;28;20111;-66
2021/11/30 06:09:02;;;;;;;26.23;15.88;;;;;;;;;;5131008;28;20051;-66
2021/11/30 06:11:28;;;;;;;33.50;17.65;;;;;;;;;;5131056;27;20016;-66
2021/11/30 06:13:55;;;;;;;31.38;17.25;;;;;;;;;;5131025;28;20050;-66
2021/11/30 06:16:21;;;;;;;32.35;16.02;;;;;;;;;;5124891;28;20465;-66
2021/11/30 06:18:48;;;;;;;31.15;18.08;;;;;;;;;;5130203;28;20028;-66
2021/11/30 06:21:15;;;;;;;34.78;18.33;;;;;;;;;;5130663;28;20526;-66
2021/11/30 06:23:42;;;;;;;31.48;16.90;;;;;;;;;;5130703;28;20031;-66
2021/11/30 06:26:09;;;;;;;33.75;18.17;;;;;;;;;;5130560;28;20034;-65
2021/11/30 06:28:35;;;;;;;37.28;21.48;;;;;;;;;;5130468;28;20038;-67
2021/11/30 06:31:01;;;;;;;33.30;18.83;;;;;;;;;;5128930;28;20042;-65
2021/11/30 06:33:27;;;;;;;32.38;18.20;;;;;;;;;;5130473;28;20098;-65
2021/11/30 06:35:54;;;;;;;34.80;17.67;;;;;;;;;;5130000;28;20076;-65
2021/11/30 06:38:20;;;;;;;32.00;18.80;;;;;;;;;;5130323;28;20084;-66
2021/11/30 06:40:46;;;;;;;30.15;19.42;;;;;;;;;;5130505;28;20024;-65
2021/11/30 06:43:14;;;;;;;29.02;17.33;;;;;;;;;;5130645;28;20030;-65
2021/11/30 06:45:40;;;;;;;35.45;20.50;;;;;;;;;;5129979;27;20028;-64
2021/11/30 06:48:06;;;;;;;38.90;19.02;;;;;;;;;;5129955;28;20031;-65
2021/11/30 06:50:32;;;;;;;30.70;17.80;;;;;;;;;;5130340;28;20110;-65
2021/11/30 06:52:59;;;;;;;34.53;18.58;;;;;;;;;;5130086;28;20020;-65
2021/11/30 06:55:25;;;;;;;30.17;17.75;;;;;;;;;;5129548;28;20138;-64
2021/11/30 06:57:51;;;;;;;34.03;17.23;;;;;;;;;;5115757;28;20024;-65
2021/11/30 07:00:21;;;;;;;31.45;16.65;;;;;;;;;;5114761;28;20080;-64
2021/11/30 07:02:49;;;;;;;35.22;20.83;;;;;;;;;;5115992;28;20371;-65
2021/11/30 07:05:18;;;;;;;25.70;15.65;;;;;;;;;;5116193;28;20066;-65
2021/11/30 07:11:02;;;;;;;32.67;16.70;;;;;;;;;;5116201;28;20482;-64
2021/11/30 07:13:15;;;;;;;32.58;17.55;;;;;;;;;;5109957;28;20383;-64
2021/11/30 07:15:42;;;;;;;31.10;17.45;;;;;;;;;;5114777;28;20062;-64
2021/11/30 07:18:10;;;;;;;33.38;19.15;;;;;;;;;;5116012;27;20517;-64
2021/11/30 07:20:36;;;;;;;32.50;18.15;;;;;;;;;;5116062;28;20080;-64
2021/11/30 07:23:03;;;;;;;27.08;16.63;;;;;;;;;;5115905;28;20020;-65
2021/11/30 07:25:29;;;;;;;28.58;16.80;;;;;;;;;;5115593;28;20487;-65
2021/11/30 07:27:55;;;;;;;26.13;14.73;;;;;;;;;;5115823;28;20031;-64
2021/11/30 07:30:22;;;;;;;44.97;20.70;;;2.40;99.90;;;;;;5115816;28;20052;-65
2021/11/30 07:32:48;;;;;;;25.95;15.10;;;2.30;99.90;;;;;;5115821;28;20092;-65
2021/11/30 07:35:15;;;;;;;26.95;15.32;;;2.40;99.90;;;;;;5114322;28;20049;-65
2021/11/30 07:37:41;;;;;;;31.02;14.48;;;2.40;99.90;;;;;;5115704;28;20027;-64
2021/11/30 07:40:08;;;;;;;29.10;15.27;;;2.50;99.90;;;;;;5115692;28;20034;-64
2021/11/30 07:42:34;;;;;;;29.33;15.65;;;2.50;99.90;;;;;;5115520;28;20031;-66
2021/11/30 07:45:00;;;;;;;37.53;18.25;;;2.60;99.90;;;;;;5115088;28;20024;-64
2021/11/30 07:47:27;;;;;;;38.03;19.98;;;2.60;99.90;;;;;;5115224;28;20028;-63
2021/11/30 07:49:53;;;;;;;34.47;16.45;;;2.60;99.90;;;;;;5113780;28;20024;-63
2021/11/30 07:52:19;;;;;;;28.80;17.27;;;2.70;99.90;;;;;;5115400;28;20463;-64
2021/11/30 07:54:47;;;;;;;27.63;15.63;;;2.80;99.90;;;;;;5115036;28;20073;-64
2021/11/30 07:57:13;;;;;;;25.80;14.65;;;2.90;99.90;;;;;;5115303;28;20111;-64
2021/11/30 07:59:40;;;;;;;25.83;13.55;;;2.90;99.90;;;;;;5113754;28;20055;-65
2021/11/30 08:02:06;;;;;;;24.83;13.43;;;;;;;;;;5115067;28;20032;-65
2021/11/30 08:04:33;;;;;;;23.52;11.70;;;3.10;99.90;;;;;;5115258;28;20027;-65
2021/11/30 08:06:59;;;;;;;27.75;15.65;;;;;;;;;;5113456;28;20044;-64
2021/11/30 08:09:33;;;;;;;19.80;11.57;;;3.20;99.90;;;;;;5114217;28;20028;-65
2021/11/30 08:11:59;;;;;;;40.22;19.15;;;3.20;99.90;;;;;;5114948;28;20019;-65
2021/11/30 08:14:25;;;;;;;24.92;13.75;;;3.30;99.90;;;;;;5114455;28;20084;-66
2021/11/30 08:16:51;;;;;;;36.65;14.63;;;3.30;99.90;;;;;;5114456;28;20519;-65
2021/11/30 08:19:17;;;;;;;26.23;13.38;;;3.40;99.90;;;;;;5114805;27;20095;-65
2021/11/30 08:21:42;;;;;;;17.70;11.35;;;3.50;99.90;;;;;;5114767;28;20023;-65
2021/11/30 08:24:09;;;;;;;20.58;11.30;;;;;;;;;;5114588;28;20028;-66
2021/11/30 08:26:35;;;;;;;25.25;13.63;;;3.50;99.90;;;;;;5113355;28;20032;-65
2021/11/30 08:29:01;;;;;;;22.08;12.77;;;;;;;;;;5113217;28;20399;-65
2021/11/30 08:31:27;;;;;;;24.20;13.50;;;;;;;;;;5113075;28;20106;-65
2021/11/30 08:33:53;;;;;;;24.70;12.88;;;;;;;;;;5114136;28;20456;-65
2021/11/30 08:36:19;;;;;;;22.58;11.85;;;3.90;99.90;;;;;;5114299;28;20027;-66
2021/11/30 08:38:45;;;;;;;20.75;11.85;;;4.00;99.90;;;;;;5114357;28;20220;-65
2021/11/30 08:41:11;;;;;;;41.13;19.70;;;4.10;99.90;;;;;;5112985;28;20114;-66
2021/11/30 08:43:37;;;;;;;22.65;12.15;;;;;;;;;;5112914;28;20031;-65
2021/11/30 08:46:03;;;;;;;19.75;11.45;;;4.20;99.90;;;;;;5112879;28;20135;-65
2021/11/30 08:48:29;;;;;;;19.02;10.55;;;4.30;99.90;;;;;;5114075;28;20059;-66
2021/11/30 08:50:57;;;;;;;20.90;11.20;;;4.40;99.90;;;;;;5114340;28;20031;-66
2021/11/30 08:53:24;;;;;;;20.30;11.10;;;4.50;99.90;;;;;;5113880;28;20414;-66
2021/11/30 08:55:51;;;;;;;16.48;9.38;;;4.70;99.90;;;;;;5113556;28;20050;-66
2021/11/30 08:58:17;;;;;;;22.35;12.18;;;4.80;99.90;;;;;;5114079;28;20120;-65
2021/11/30 09:00:43;;;;;;;20.60;11.32;;;5.00;99.90;;;;;;5114150;28;20123;-65
2021/11/30 09:03:09;;;;;;;20.92;11.63;;;5.00;99.30;;;;;;5114057;28;20035;-65
2021/11/30 09:05:35;;;;;;;22.50;11.93;;;5.00;99.30;;;;;;5113865;28;20035;-65
2021/11/30 09:08:01;;;;;;;30.30;15.70;;;;;;;;;;5112453;28;20028;-65
2021/11/30 09:10:28;;;;;;;21.50;11.75;;;;;;;;;;5113510;28;20034;-65
2021/11/30 09:12:54;;;;;;;269.83;108.22;;;;;;;;;;5112518;28;20031;-65
2021/11/30 09:15:20;;;;;;;16.63;9.93;;;;;;;;;;5112434;28;20039;-65
2021/11/30 09:17:47;;;;;;;17.42;10.32;;;;;;;;;;5112374;28;20028;-66
2021/11/30 09:20:13;;;;;;;18.17;11.23;;;;;;;;;;5112063;28;20034;-65
2021/11/30 09:22:40;;;;;;;18.10;9.95;;;;;;;;;;5113438;28;20115;-65
2021/11/30 09:25:06;;;;;;;20.17;10.73;;;;;;;;;;5113517;28;20074;-66
2021/11/30 09:27:33;;;;;;;17.33;10.48;;;;;;;;;;5113863;28;20028;-65
2021/11/30 09:30:00;;;;;;;17.55;10.43;;;;;;;;;;5113870;28;20039;-65
2021/11/30 09:32:30;;;;;;;18.55;10.57;;;;;;;;;;5113606;28;20031;-66
2021/11/30 09:35:00;;;;;;;25.95;14.13;;;;;;;;;;5112188;28;20036;-65
2021/11/30 09:37:26;;;;;;;20.27;10.43;;;;;;;;;;5113518;28;20065;-66
2021/11/30 09:39:53;;;;;;;22.83;12.40;;;;;;;;;;5112075;28;20409;-65
2021/11/30 09:42:19;;;;;;;26.63;14.60;;;;;;;;;;5112185;28;20398;-65
2021/11/30 09:44:46;;;;;;;26.10;12.48;;;;;;;;;;5113377;28;20043;-65
2021/11/30 09:47:14;;;;;;;21.38;11.45;;;;;;;;;;5113436;28;20028;-65
2021/11/30 09:49:41;;;;;;;23.23;13.63;;;;;;;;;;5113485;28;20111;-65
2021/11/30 09:52:07;;;;;;;26.55;12.88;;;;;;;;;;5113460;28;20029;-66
2021/11/30 09:54:33;;;;;;;18.17;11.43;;;;;;;;;;5113351;28;20043;-65
2021/11/30 09:57:01;;;;;;;17.85;10.68;;;;;;;;;;5113041;28;20034;-65
2021/11/30 09:59:27;;;;;;;26.83;13.13;;;;;;;;;;5113317;28;20027;-65
2021/11/30 10:01:53;;;;;;;17.48;11.48;;;;;;;;;;5113390;28;20023;-66
2021/11/30 10:04:19;;;;;;;18.45;11.70;;;;;;;;;;5111924;28;20072;-65
2021/11/30 10:06:46;;;;;;;20.40;10.43;;;;;;;;;;5111908;28;20546;-65
2021/11/30 10:09:16;;;;;;;15.20;9.70;;;;;;;;;;5113262;28;20044;-65
2021/11/30 10:11:42;;;;;;;18.40;10.23;;;;;;;;;;5113247;28;20028;-65
2021/11/30 10:14:11;;;;;;;23.67;10.82;;;;;;;;;;5113132;28;20051;-65
2021/11/30 10:16:38;;;;;;;19.73;10.30;;;;;;;;;;5113140;28;20031;-65
2021/11/30 10:19:05;;;;;;;19.83;10.75;;;;;;;;;;5111805;28;20028;-65
2021/11/30 10:21:31;;;;;;;22.05;12.80;;;;;;;;;;5113200;28;20058;-65
2021/11/30 10:23:59;;;;;;;24.63;13.38;;;;;;;;;;5112780;28;20106;-65
2021/11/30 10:26:36;;;;;;;19.38;10.63;;;;;;;;;;5112998;28;20031;-64
2021/11/30 10:29:04;;;;;;;20.45;11.27;;;;;;;;;;5113124;28;20030;-65
2021/11/30 10:31:49;;;;;;;22.92;14.02;;;;;;;;;;5114199;28;20020;-64
2021/11/30 10:34:23;;;;;;;20.60;12.85;;;;;;;;;;5117001;28;20031;-64
2021/11/30 10:36:52;;;;;;;15.90;10.13;;;;;;;;;;5116960;28;20019;-65
2021/11/30 10:39:19;;;;;;;20.85;10.73;;;;;;;;;;5116839;28;20027;-65
2021/11/30 10:41:48;;;;;;;20.38;11.25;;;;;;;;;;5115484;28;20026;-64
2021/11/30 10:44:14;;;;;;;26.40;9.93;;;;;;;;;;5116642;28;20410;-64
2021/11/30 10:46:40;;;;;;;18.95;10.13;;;;;;;;;;5116644;28;20034;-65
2021/11/30 10:49:07;;;;;;;16.65;8.80;;;;;;;;;;5116671;28;20036;-64
2021/11/30 10:51:50;;;;;;;16.67;8.27;;;;;;;;;;5114882;28;20027;-65
2021/11/30 10:54:16;;;;;;;20.10;10.68;;;;;;;;;;5116237;27;20027;-65
2021/11/30 10:56:42;;;;;;;16.60;9.57;;;;;;;;;;5114329;28;20054;-65
2021/11/30 10:59:08;;;;;;;14.52;9.27;;;;;;;;;;5115687;28;20047;-63
2021/11/30 11:01:42;;;;;;;14.82;8.77;;;;;;;;;;5116292;28;20044;-62
2021/11/30 11:04:09;;;;;;;13.45;8.52;;;;;;;;;;5116189;28;20028;-62
2021/11/30 11:06:37;;;;;;;15.85;9.35;;;;;;;;;;5116156;28;20479;-63
2021/11/30 11:09:05;;;;;;;13.95;8.57;;;;;;;;;;5114820;28;20034;-63
2021/11/30 11:11:35;;;;;;;19.40;11.13;;;;;;;;;;5116197;28;20506;-62
2021/11/30 11:14:03;;;;;;;19.55;10.05;;;;;;;;;;5116010;28;20031;-63
2021/11/30 11:16:31;;;;;;;17.10;9.00;;;;;;;;;;5115962;28;20030;-64
2021/11/30 11:18:59;;;;;;;14.13;6.88;;;;;;;;;;5115420;28;20031;-63
2021/11/30 11:21:36;;;;;;;13.55;7.43;;;;;;;;;;5115802;28;20101;-63
2021/11/30 11:24:21;;;;;;;13.60;8.05;;;;;;;;;;5116075;28;20111;-62
2021/11/30 11:26:51;;;;;;;13.40;7.72;;;;;;;;;;5115832;28;20039;-62
2021/11/30 11:29:20;;;;;;;12.65;7.93;;;;;;;;;;5114508;28;20114;-64
2021/11/30 11:31:51;;;;;;;13.88;8.05;;;;;;;;;;5114366;28;20027;-62
2021/11/30 11:34:19;;;;;;;20.58;11.00;;;;;;;;;;5115693;28;20129;-65
2021/11/30 11:36:47;;;;;;;11.25;6.70;;;;;;;;;;5114277;28;20409;-64
2021/11/30 11:39:16;;;;;;;23.50;11.30;;;;;;;;;;5115728;27;20442;-63
2021/11/30 11:41:43;;;;;;;11.40;6.90;;;;;;;;;;5115372;28;20028;-63
2021/11/30 11:44:09;;;;;;;18.27;9.27;;;;;;;;;;5115129;28;20020;-62
2021/11/30 11:46:36;;;;;;;16.33;7.10;;;;;;;;;;5115401;28;20023;-63
2021/11/30 11:49:05;;;;;;;12.70;7.78;;;;;;;;;;5115351;28;20016;-63
2021/11/30 11:51:35;;;;;;;15.20;7.90;;;;;;;;;;5114026;28;20023;-63
2021/11/30 11:54:01;;;;;;;10.02;5.85;;;;;;;;;;5115253;28;20467;-63
2021/11/30 11:56:30;;;;;;;14.30;7.80;;;;;;;;;;5114717;28;20119;-63
2021/11/30 11:59:17;;;;;;;10.60;6.55;;;;;;;;;;5115074;27;20107;-64
2021/11/30 12:01:45;;;;;;;8.27;5.50;;;;;;;;;;5113993;28;20050;-64
2021/11/30 12:04:15;;;;;;;17.90;10.32;;;;;;;;;;5114932;28;20027;-64
2021/11/30 12:06:53;;;;;;;19.38;9.15;;;;;;;;;;5114956;28;20054;-64
2021/11/30 12:09:21;;;;;;;16.25;6.00;;;;;;;;;;5113641;28;20023;-64
2021/11/30 12:11:52;;;;;;;14.20;6.50;;;;;;;;;;5113425;28;20115;-65
2021/11/30 12:14:21;;;;;;;9.73;6.15;;;;;;;;;;5114977;28;20019;-64
2021/11/30 12:17:09;;;;;;;12.88;6.35;;;;;;;;;;5113754;28;20043;-64
2021/11/30 12:19:43;;;;;;;8.75;4.93;;;;;;;;;;5114765;28;20024;-64
2021/11/30 12:22:11;;;;;;;8.77;5.40;;;;;;;;;;5114676;28;20027;-63
2021/11/30 12:24:39;;;;;;;7.25;5.18;;;;;;;;;;5114526;28;20057;-65
2021/11/30 12:27:31;;;;;;;11.02;6.28;;;;;;;;;;5113214;28;20031;-63
2021/11/30 12:29:57;;;;;;;7.68;5.40;;;;;;;;;;5110339;28;20036;-64
2021/11/30 12:32:29;;;;;;;6.85;4.95;;;;;;;;;;5114508;28;20464;-65
2021/11/30 12:35:00;;;;;;;9.25;5.18;;;;;;;;;;5114482;28;20434;-63
2021/11/30 12:37:27;;;;;;;;;;;;;;;;;;5114831;28;20042;-64
2021/11/30 12:39:59;;;;;;;9.13;3.80;;;;;;;;;;5114271;28;19903;-63
2021/11/30 12:42:25;;;;;;;;;;;;;;;;;;5113584;28;20023;-63
2021/11/30 12:44:51;;;;;;;6.88;3.90;;;;;;;;;;5114246;28;19908;-63
2021/11/30 12:47:18;;;;;;;6.20;4.25;;;;;;;;;;5114215;28;20028;-64
2021/11/30 12:49:46;;;;;;;11.48;5.65;;;;;;;;;;5112671;28;20023;-64
2021/11/30 12:52:16;;;;;;;10.60;5.20;;;;;;;;;;5112867;28;20435;-64
2021/11/30 12:54:50;;;;;;;13.30;6.57;;;;;;;;;;5113391;28;20077;-64
2021/11/30 12:57:20;;;;;;;9.27;5.60;;;;;;;;;;5112729;28;20317;-66
2021/11/30 12:59:51;;;;;;;10.63;5.40;;;;;;;;;;5113923;28;20031;-65
2021/11/30 13:02:20;;;;;;;9.13;4.53;;;;;;;;;;5112579;28;20019;-66
2021/11/30 13:04:48;;;;;;;8.27;4.40;;;;;;;;;;5113730;28;20043;-63
2021/11/30 13:07:16;;;;;;;13.13;5.63;;;;;;;;;;5113855;28;20063;-65
2021/11/30 13:10:08;;;;;;;8.27;5.38;;;;;;;;;;5113628;28;20077;-64
2021/11/30 13:12:34;;;;;;;7.63;4.95;;;;;;;;;;5110096;28;20039;-63
2021/11/30 13:15:04;;;;;;;7.72;3.85;;;;;;;;;;5112398;28;20024;-63
2021/11/30 13:17:35;;;;;;;7.65;4.30;;;;;;;;;;5113687;28;20050;-63
2021/11/30 13:20:01;;;;;;;9.60;4.88;;;;;;;;;;5113188;28;20436;-65
2021/11/30 13:22:28;;;;;;;6.00;4.00;;;;;;;;;;5113483;28;20157;-66
2021/11/30 13:24:56;;;;;;;6.63;3.40;;;;;;;;;;5112164;28;20474;-64
2021/11/30 13:27:23;;;;;;;9.27;4.50;;;;;;;;;;5113529;28;20034;-65
2021/11/30 13:30:10;;;;;;;10.77;5.07;;;;;;;;;;5113392;28;20028;-64
2021/11/30 13:32:40;;;;;;;8.07;5.03;;;;;;;;;;5113452;28;20024;-64
2021/11/30 13:35:15;;;;;;;9.88;4.93;;;;;;;;;;5113175;28;20387;-64
2021/11/30 13:38:03;;;;;;;6.60;4.25;;;;;;;;;;5113115;28;20024;-64
2021/11/30 13:40:48;;;;;;;7.28;4.45;;;;;;;;;;5099496;28;20043;-62
2021/11/30 13:43:15;;;;;;;15.07;5.70;;;;;;;;;;5113343;28;20020;-63
2021/11/30 13:45:48;;;;;;;11.20;5.30;;;;;;;;;;5113099;28;20055;-62
2021/11/30 13:48:25;;;;;;;12.00;5.15;;;;;;;;;;5113399;28;20106;-65
2021/11/30 13:50:53;;;;;;;7.53;4.28;;;;;;;;;;5113192;28;20031;-66
2021/11/30 13:53:21;;;;;;;12.15;5.50;;;;;;;;;;5113280;28;20024;-65
2021/11/30 13:55:52;;;;;;;11.40;5.07;;;;;;;;;;5111633;28;20051;-67
2021/11/30 13:58:21;;;;;;;7.38;3.83;;;;;;;;;;5113310;28;20031;-65
2021/11/30 14:00:59;;;;;;;8.18;5.15;;;;;;;;;;5113104;28;20062;-64
2021/11/30 14:03:39;;;;;;;7.35;4.97;;;;;;;;;;5113245;28;20028;-64
2021/11/30 14:06:37;;;;;;;13.93;5.30;;;;;;;;;;5113549;28;20028;-63
2021/11/30 14:09:11;;;;;;;10.25;5.03;;;;;;;;;;5017581;28;20072;-65
2021/11/30 14:11:38;;;;;;;7.35;4.57;;;;;;;;;;5033939;28;20056;-64
2021/11/30 14:14:05;;;;;;;9.70;4.68;;;;;;;;;;5017682;28;20382;-64
2021/11/30 14:16:31;;;;;;;7.95;4.40;;;;;;;;;;5034025;28;20033;-63
2021/11/30 14:19:02;;;;;;;8.45;4.78;;;;;;;;;;5033980;28;20068;-64
2021/11/30 14:21:32;;;;;;;7.45;4.53;;;;;;;;;;5033848;28;20040;-64
2021/11/30 14:24:02;;;;;;;10.52;5.05;;;;;;;;;;5033901;28;20033;-66
2021/11/30 14:26:34;;;;;;;10.38;6.20;;;;;;;;;;5033985;28;20052;-69
2021/11/30 14:29:02;;;;;;;11.60;6.07;;;;;;;;;;5034361;28;20474;-65
2021/11/30 14:31:48;;;;;;;12.82;7.00;;;;;;;;;;5017029;28;20029;-65
2021/11/30 14:34:15;;;;;;;15.07;7.90;;;;;;;;;;5016511;28;20530;-66
2021/11/30 14:36:41;;;;;;;28.75;12.65;;;;;;;;;;5033629;28;20144;-66